TAF FDMS 221000Z 2212/2218 02007KT 9999 BKN035 BECMG 2213/2215 SCT035=